sensor_id;sensor_type;location;lat;lon;timestamp;temperature;humidity
21355;DHT22;10835;50.148;19.760;2024-01-10T00:00:46;8.70;29.40
21355;DHT22;10835;50.148;19.760;2024-01-10T00:03:16;8.00;29.50
21355;DHT22;10835;50.148;19.760;2024-01-10T00:05:45;8.40;30.00
21355;DHT22;10835;50.148;19.760;2024-01-10T00:08:13;8.20;29.90
21355;DHT22;10835;50.148;19.760;2024-01-10T00:10:42;8.40;30.00
21355;DHT22;10835;50.148;19.760;2024-01-10T00:13:10;8.60;30.00
21355;DHT22;10835;50.148;19.760;2024-01-10T00:15:38;8.80;29.70
21355;DHT22;10835;50.148;19.760;2024-01-10T00:18:07;8.90;29.50
21355;DHT22;10835;50.148;19.760;2024-01-10T00:20:37;8.90;29.40
21355;DHT22;10835;50.148;19.760;2024-01-10T00:23:05;8.90;29.50
21355;DHT22;10835;50.148;19.760;2024-01-10T00:25:34;8.90;29.40
21355;DHT22;10835;50.148;19.760;2024-01-10T00:28:03;8.70;29.40
21355;DHT22;10835;50.148;19.760;2024-01-10T00:30:31;8.80;29.60
21355;DHT22;10835;50.148;19.760;2024-01-10T00:33:01;8.90;29.40
21355;DHT22;10835;50.148;19.760;2024-01-10T00:35:30;9.00;29.30
21355;DHT22;10835;50.148;19.760;2024-01-10T00:38:00;9.00;29.30
21355;DHT22;10835;50.148;19.760;2024-01-10T00:40:28;8.90;29.30
21355;DHT22;10835;50.148;19.760;2024-01-10T00:42:57;8.90;29.50
21355;DHT22;10835;50.148;19.760;2024-01-10T00:45:25;9.00;29.40
21355;DHT22;10835;50.148;19.760;2024-01-10T00:47:54;8.80;29.20
21355;DHT22;10835;50.148;19.760;2024-01-10T00:50:22;8.30;29.50
21355;DHT22;10835;50.148;19.760;2024-01-10T00:52:51;8.30;30.00
21355;DHT22;10835;50.148;19.760;2024-01-10T00:55:20;8.50;29.80
21355;DHT22;10835;50.148;19.760;2024-01-10T00:57:49;8.50;29.60
21355;DHT22;10835;50.148;19.760;2024-01-10T01:00:17;7.80;29.60
21355;DHT22;10835;50.148;19.760;2024-01-10T01:02:46;7.80;30.20
21355;DHT22;10835;50.148;19.760;2024-01-10T01:05:14;8.00;30.20
21355;DHT22;10835;50.148;19.760;2024-01-10T01:07:43;8.10;30.40
21355;DHT22;10835;50.148;19.760;2024-01-10T01:10:11;8.20;29.80
21355;DHT22;10835;50.148;19.760;2024-01-10T01:12:41;8.20;29.50
21355;DHT22;10835;50.148;19.760;2024-01-10T01:15:10;8.20;29.40
21355;DHT22;10835;50.148;19.760;2024-01-10T01:17:38;8.10;29.60
21355;DHT22;10835;50.148;19.760;2024-01-10T01:20:07;8.30;29.90
21355;DHT22;10835;50.148;19.760;2024-01-10T01:22:37;8.10;29.60
21355;DHT22;10835;50.148;19.760;2024-01-10T01:25:06;7.40;29.90
21355;DHT22;10835;50.148;19.760;2024-01-10T01:27:34;7.60;30.40
21355;DHT22;10835;50.148;19.760;2024-01-10T01:30:05;7.30;30.40
21355;DHT22;10835;50.148;19.760;2024-01-10T01:32:34;7.10;30.90
21355;DHT22;10835;50.148;19.760;2024-01-10T01:35:03;7.50;31.00
21355;DHT22;10835;50.148;19.760;2024-01-10T01:37:32;7.60;30.60
21355;DHT22;10835;50.148;19.760;2024-01-10T01:40:00;7.60;30.40
21355;DHT22;10835;50.148;19.760;2024-01-10T01:42:28;7.60;30.50
21355;DHT22;10835;50.148;19.760;2024-01-10T01:44:57;7.70;30.40
21355;DHT22;10835;50.148;19.760;2024-01-10T01:47:27;7.80;30.30
21355;DHT22;10835;50.148;19.760;2024-01-10T01:49:55;7.90;30.30
21355;DHT22;10835;50.148;19.760;2024-01-10T01:52:24;8.00;30.30
21355;DHT22;10835;50.148;19.760;2024-01-10T01:54:53;8.20;30.10
21355;DHT22;10835;50.148;19.760;2024-01-10T01:57:21;8.30;30.00
21355;DHT22;10835;50.148;19.760;2024-01-10T01:59:50;8.40;29.90
21355;DHT22;10835;50.148;19.760;2024-01-10T02:02:18;8.50;30.00
21355;DHT22;10835;50.148;19.760;2024-01-10T02:04:49;8.50;29.70
21355;DHT22;10835;50.148;19.760;2024-01-10T02:07:18;8.40;29.70
21355;DHT22;10835;50.148;19.760;2024-01-10T02:09:47;8.40;29.70
21355;DHT22;10835;50.148;19.760;2024-01-10T02:12:15;8.30;29.90
21355;DHT22;10835;50.148;19.760;2024-01-10T02:14:44;8.40;29.80
21355;DHT22;10835;50.148;19.760;2024-01-10T02:17:12;8.40;29.60
21355;DHT22;10835;50.148;19.760;2024-01-10T02:19:41;8.50;29.50
21355;DHT22;10835;50.148;19.760;2024-01-10T02:22:11;8.30;29.40
21355;DHT22;10835;50.148;19.760;2024-01-10T02:24:39;8.20;29.70
21355;DHT22;10835;50.148;19.760;2024-01-10T02:27:09;8.30;29.50
21355;DHT22;10835;50.148;19.760;2024-01-10T02:29:38;8.40;29.40
21355;DHT22;10835;50.148;19.760;2024-01-10T02:32:06;8.40;29.50
21355;DHT22;10835;50.148;19.760;2024-01-10T02:34:35;8.40;29.70
21355;DHT22;10835;50.148;19.760;2024-01-10T02:37:03;8.30;29.30
21355;DHT22;10835;50.148;19.760;2024-01-10T02:39:32;8.50;29.70
21355;DHT22;10835;50.148;19.760;2024-01-10T02:42:00;8.60;29.60
21355;DHT22;10835;50.148;19.760;2024-01-10T02:44:30;8.60;29.50
21355;DHT22;10835;50.148;19.760;2024-01-10T02:46:58;8.40;29.20
21355;DHT22;10835;50.148;19.760;2024-01-10T02:49:27;8.40;29.20
21355;DHT22;10835;50.148;19.760;2024-01-10T02:51:55;8.30;29.40
21355;DHT22;10835;50.148;19.760;2024-01-10T02:54:24;8.50;29.30
21355;DHT22;10835;50.148;19.760;2024-01-10T02:56:52;8.40;29.20
21355;DHT22;10835;50.148;19.760;2024-01-10T02:59:20;8.50;29.20
21355;DHT22;10835;50.148;19.760;2024-01-10T03:01:50;8.40;29.20
21355;DHT22;10835;50.148;19.760;2024-01-10T03:04:19;8.40;29.30
21355;DHT22;10835;50.148;19.760;2024-01-10T03:06:47;8.30;29.40
21355;DHT22;10835;50.148;19.760;2024-01-10T03:09:15;8.10;29.40
21355;DHT22;10835;50.148;19.760;2024-01-10T03:11:44;8.00;29.50
21355;DHT22;10835;50.148;19.760;2024-01-10T03:14:12;7.90;29.60
21355;DHT22;10835;50.148;19.760;2024-01-10T03:16:41;7.70;29.50
21355;DHT22;10835;50.148;19.760;2024-01-10T03:19:11;7.90;30.00
21355;DHT22;10835;50.148;19.760;2024-01-10T03:21:39;7.90;29.90
21355;DHT22;10835;50.148;19.760;2024-01-10T03:24:08;7.40;29.80
21355;DHT22;10835;50.148;19.760;2024-01-10T03:26:36;7.20;30.30
21355;DHT22;10835;50.148;19.760;2024-01-10T03:29:05;7.30;30.70
21355;DHT22;10835;50.148;19.760;2024-01-10T03:31:33;7.50;30.70
21355;DHT22;10835;50.148;19.760;2024-01-10T03:34:03;7.50;30.30
21355;DHT22;10835;50.148;19.760;2024-01-10T03:36:33;7.70;30.50
21355;DHT22;10835;50.148;19.760;2024-01-10T03:39:02;7.90;30.00
21355;DHT22;10835;50.148;19.760;2024-01-10T03:41:30;8.10;29.90
21355;DHT22;10835;50.148;19.760;2024-01-10T03:43:59;8.20;29.80
21355;DHT22;10835;50.148;19.760;2024-01-10T03:46:27;8.30;29.60
21355;DHT22;10835;50.148;19.760;2024-01-10T03:48:55;8.20;29.40
21355;DHT22;10835;50.148;19.760;2024-01-10T03:51:24;8.20;29.50
21355;DHT22;10835;50.148;19.760;2024-01-10T03:53:54;7.80;29.60
21355;DHT22;10835;50.148;19.760;2024-01-10T03:56:22;7.70;29.80
21355;DHT22;10835;50.148;19.760;2024-01-10T03:58:51;8.00;29.90
21355;DHT22;10835;50.148;19.760;2024-01-10T04:01:22;8.20;29.70
21355;DHT22;10835;50.148;19.760;2024-01-10T04:03:51;8.20;29.50
21355;DHT22;10835;50.148;19.760;2024-01-10T04:06:19;8.00;29.40
21355;DHT22;10835;50.148;19.760;2024-01-10T04:08:48;8.20;29.50
21355;DHT22;10835;50.148;19.760;2024-01-10T04:11:17;8.30;29.10
21355;DHT22;10835;50.148;19.760;2024-01-10T04:13:46;8.30;29.10
21355;DHT22;10835;50.148;19.760;2024-01-10T04:16:15;8.40;29.20
21355;DHT22;10835;50.148;19.760;2024-01-10T04:18:43;8.20;28.90
21355;DHT22;10835;50.148;19.760;2024-01-10T04:21:11;8.30;28.90
21355;DHT22;10835;50.148;19.760;2024-01-10T04:23:40;8.30;29.00
21355;DHT22;10835;50.148;19.760;2024-01-10T04:26:08;8.30;29.10
21355;DHT22;10835;50.148;19.760;2024-01-10T04:28:38;8.30;28.70
21355;DHT22;10835;50.148;19.760;2024-01-10T04:31:08;8.50;28.80
21355;DHT22;10835;50.148;19.760;2024-01-10T04:33:37;8.60;28.60
21355;DHT22;10835;50.148;19.760;2024-01-10T04:36:06;8.60;28.80
21355;DHT22;10835;50.148;19.760;2024-01-10T04:38:34;8.50;28.70
21355;DHT22;10835;50.148;19.760;2024-01-10T04:41:03;8.30;28.60
21355;DHT22;10835;50.148;19.760;2024-01-10T04:43:32;8.20;28.60
21355;DHT22;10835;50.148;19.760;2024-01-10T04:46:01;8.40;29.00
21355;DHT22;10835;50.148;19.760;2024-01-10T04:48:30;8.50;28.90
21355;DHT22;10835;50.148;19.760;2024-01-10T04:50:58;8.50;29.10
21355;DHT22;10835;50.148;19.760;2024-01-10T04:53:27;8.40;29.00
21355;DHT22;10835;50.148;19.760;2024-01-10T04:55:55;8.20;28.90
21355;DHT22;10835;50.148;19.760;2024-01-10T04:58:24;8.20;29.00
21355;DHT22;10835;50.148;19.760;2024-01-10T05:00:52;8.30;28.90
21355;DHT22;10835;50.148;19.760;2024-01-10T05:03:22;8.40;28.90
21355;DHT22;10835;50.148;19.760;2024-01-10T05:05:50;8.60;29.00
21355;DHT22;10835;50.148;19.760;2024-01-10T05:08:19;8.60;28.70
21355;DHT22;10835;50.148;19.760;2024-01-10T05:10:48;8.60;28.60
21355;DHT22;10835;50.148;19.760;2024-01-10T05:13:17;8.50;28.60
21355;DHT22;10835;50.148;19.760;2024-01-10T05:15:46;8.40;28.70
21355;DHT22;10835;50.148;19.760;2024-01-10T05:18:16;8.30;28.70
21355;DHT22;10835;50.148;19.760;2024-01-10T05:20:46;8.20;29.00
21355;DHT22;10835;50.148;19.760;2024-01-10T05:23:14;8.40;28.90
21355;DHT22;10835;50.148;19.760;2024-01-10T05:25:43;8.50;28.80
21355;DHT22;10835;50.148;19.760;2024-01-10T05:28:11;8.60;28.60
21355;DHT22;10835;50.148;19.760;2024-01-10T05:30:39;8.60;28.70
21355;DHT22;10835;50.148;19.760;2024-01-10T05:33:09;8.70;28.50
21355;DHT22;10835;50.148;19.760;2024-01-10T05:35:39;8.80;28.20
21355;DHT22;10835;50.148;19.760;2024-01-10T05:38:08;8.80;28.50
21355;DHT22;10835;50.148;19.760;2024-01-10T05:40:37;8.80;28.40
21355;DHT22;10835;50.148;19.760;2024-01-10T05:43:05;8.70;28.30
21355;DHT22;10835;50.148;19.760;2024-01-10T05:45:34;8.40;28.50
21355;DHT22;10835;50.148;19.760;2024-01-10T05:48:02;8.40;28.70
21355;DHT22;10835;50.148;19.760;2024-01-10T05:50:31;8.40;28.70
21355;DHT22;10835;50.148;19.760;2024-01-10T05:52:59;8.30;28.50
21355;DHT22;10835;50.148;19.760;2024-01-10T05:55:29;8.40;28.30
21355;DHT22;10835;50.148;19.760;2024-01-10T05:57:57;8.40;28.30
21355;DHT22;10835;50.148;19.760;2024-01-10T06:00:26;8.40;28.40
21355;DHT22;10835;50.148;19.760;2024-01-10T06:02:55;8.50;28.70
21355;DHT22;10835;50.148;19.760;2024-01-10T06:05:23;8.40;28.60
21355;DHT22;10835;50.148;19.760;2024-01-10T06:07:52;8.40;28.60
21355;DHT22;10835;50.148;19.760;2024-01-10T06:10:20;8.20;28.40
21355;DHT22;10835;50.148;19.760;2024-01-10T06:12:50;8.10;28.30
21355;DHT22;10835;50.148;19.760;2024-01-10T06:15:18;8.10;28.50
21355;DHT22;10835;50.148;19.760;2024-01-10T06:17:47;8.10;28.30
21355;DHT22;10835;50.148;19.760;2024-01-10T06:20:17;8.20;28.60
21355;DHT22;10835;50.148;19.760;2024-01-10T06:22:46;8.10;28.60
21355;DHT22;10835;50.148;19.760;2024-01-10T06:25:14;8.10;28.90
21355;DHT22;10835;50.148;19.760;2024-01-10T06:27:43;8.30;28.80
21355;DHT22;10835;50.148;19.760;2024-01-10T06:30:13;8.30;28.60
21355;DHT22;10835;50.148;19.760;2024-01-10T06:32:41;8.20;28.40
21355;DHT22;10835;50.148;19.760;2024-01-10T06:35:10;8.00;28.80
21355;DHT22;10835;50.148;19.760;2024-01-10T06:37:38;8.10;28.80
21355;DHT22;10835;50.148;19.760;2024-01-10T06:40:08;8.00;28.70
21355;DHT22;10835;50.148;19.760;2024-01-10T06:42:36;8.00;28.90
21355;DHT22;10835;50.148;19.760;2024-01-10T06:45:07;8.30;28.70
21355;DHT22;10835;50.148;19.760;2024-01-10T06:47:37;8.30;28.80
21355;DHT22;10835;50.148;19.760;2024-01-10T06:50:06;8.40;28.60
21355;DHT22;10835;50.148;19.760;2024-01-10T06:52:36;8.30;28.60
21355;DHT22;10835;50.148;19.760;2024-01-10T06:55:07;8.10;28.40
21355;DHT22;10835;50.148;19.760;2024-01-10T06:57:37;8.20;28.70
21355;DHT22;10835;50.148;19.760;2024-01-10T07:00:06;8.40;28.90
21355;DHT22;10835;50.148;19.760;2024-01-10T07:02:39;8.40;28.70
21355;DHT22;10835;50.148;19.760;2024-01-10T07:05:08;8.30;28.70
21355;DHT22;10835;50.148;19.760;2024-01-10T07:07:37;8.20;29.00
21355;DHT22;10835;50.148;19.760;2024-01-10T07:10:06;8.50;29.10
21355;DHT22;10835;50.148;19.760;2024-01-10T07:12:35;8.60;29.20
21355;DHT22;10835;50.148;19.760;2024-01-10T07:15:04;8.70;28.80
21355;DHT22;10835;50.148;19.760;2024-01-10T07:17:32;8.80;28.70
21355;DHT22;10835;50.148;19.760;2024-01-10T07:20:03;8.90;28.70
21355;DHT22;10835;50.148;19.760;2024-01-10T07:22:33;9.00;28.60
21355;DHT22;10835;50.148;19.760;2024-01-10T07:25:02;9.10;28.60
21355;DHT22;10835;50.148;19.760;2024-01-10T07:27:32;9.20;28.60
21355;DHT22;10835;50.148;19.760;2024-01-10T07:30:00;9.20;28.80
21355;DHT22;10835;50.148;19.760;2024-01-10T07:32:29;9.30;28.90
21355;DHT22;10835;50.148;19.760;2024-01-10T07:34:58;9.40;28.70
21355;DHT22;10835;50.148;19.760;2024-01-10T07:37:27;9.40;29.00
21355;DHT22;10835;50.148;19.760;2024-01-10T07:39:56;9.60;29.20
21355;DHT22;10835;50.148;19.760;2024-01-10T07:42:24;9.70;28.80
21355;DHT22;10835;50.148;19.760;2024-01-10T07:44:53;9.80;28.80
21355;DHT22;10835;50.148;19.760;2024-01-10T07:47:21;9.90;28.80
21355;DHT22;10835;50.148;19.760;2024-01-10T07:49:50;10.10;28.80
21355;DHT22;10835;50.148;19.760;2024-01-10T07:52:18;10.20;28.60
21355;DHT22;10835;50.148;19.760;2024-01-10T07:54:52;10.20;28.50
21355;DHT22;10835;50.148;19.760;2024-01-10T07:57:20;10.20;28.70
21355;DHT22;10835;50.148;19.760;2024-01-10T07:59:49;10.30;28.70
21355;DHT22;10835;50.148;19.760;2024-01-10T08:02:17;10.30;28.40
21355;DHT22;10835;50.148;19.760;2024-01-10T08:04:46;10.40;28.30
21355;DHT22;10835;50.148;19.760;2024-01-10T08:07:15;10.40;28.40
21355;DHT22;10835;50.148;19.760;2024-01-10T08:09:43;10.50;28.70
21355;DHT22;10835;50.148;19.760;2024-01-10T08:12:13;10.50;28.60
21355;DHT22;10835;50.148;19.760;2024-01-10T08:14:42;10.60;28.30
21355;DHT22;10835;50.148;19.760;2024-01-10T08:17:12;10.70;28.30
21355;DHT22;10835;50.148;19.760;2024-01-10T08:19:41;10.70;28.10
21355;DHT22;10835;50.148;19.760;2024-01-10T08:22:10;10.70;27.90
21355;DHT22;10835;50.148;19.760;2024-01-10T08:24:39;10.80;28.00
21355;DHT22;10835;50.148;19.760;2024-01-10T08:27:08;10.80;28.00
21355;DHT22;10835;50.148;19.760;2024-01-10T08:29:37;10.90;28.40
21355;DHT22;10835;50.148;19.760;2024-01-10T08:32:06;11.00;28.30
21355;DHT22;10835;50.148;19.760;2024-01-10T08:34:35;11.20;28.20
21355;DHT22;10835;50.148;19.760;2024-01-10T08:37:03;11.20;27.90
21355;DHT22;10835;50.148;19.760;2024-01-10T08:39:32;11.20;27.80
21355;DHT22;10835;50.148;19.760;2024-01-10T08:42:00;11.30;28.10
21355;DHT22;10835;50.148;19.760;2024-01-10T08:44:29;11.30;28.10
21355;DHT22;10835;50.148;19.760;2024-01-10T08:46:58;11.20;28.00
21355;DHT22;10835;50.148;19.760;2024-01-10T08:49:27;11.20;28.10
21355;DHT22;10835;50.148;19.760;2024-01-10T08:51:55;11.30;28.10
21355;DHT22;10835;50.148;19.760;2024-01-10T08:54:24;11.40;28.20
21355;DHT22;10835;50.148;19.760;2024-01-10T08:56:52;11.60;28.50
21355;DHT22;10835;50.148;19.760;2024-01-10T08:59:21;11.60;28.40
21355;DHT22;10835;50.148;19.760;2024-01-10T09:01:49;11.70;28.70
21355;DHT22;10835;50.148;19.760;2024-01-10T09:04:20;11.80;28.50
21355;DHT22;10835;50.148;19.760;2024-01-10T09:06:49;11.90;28.50
21355;DHT22;10835;50.148;19.760;2024-01-10T09:09:17;12.00;28.40
21355;DHT22;10835;50.148;19.760;2024-01-10T09:11:47;12.10;28.30
21355;DHT22;10835;50.148;19.760;2024-01-10T09:14:16;12.20;28.40
21355;DHT22;10835;50.148;19.760;2024-01-10T09:16:45;12.40;28.40
21355;DHT22;10835;50.148;19.760;2024-01-10T09:19:13;12.50;28.20
21355;DHT22;10835;50.148;19.760;2024-01-10T09:21:43;12.60;28.10
21355;DHT22;10835;50.148;19.760;2024-01-10T09:24:13;12.70;28.20
21355;DHT22;10835;50.148;19.760;2024-01-10T09:26:54;12.70;28.30
21355;DHT22;10835;50.148;19.760;2024-01-10T09:29:24;12.70;28.30
21355;DHT22;10835;50.148;19.760;2024-01-10T09:31:53;12.80;28.40
21355;DHT22;10835;50.148;19.760;2024-01-10T09:34:22;12.80;28.80
21355;DHT22;10835;50.148;19.760;2024-01-10T09:36:52;12.90;28.50
21355;DHT22;10835;50.148;19.760;2024-01-10T09:39:20;13.10;28.90
21355;DHT22;10835;50.148;19.760;2024-01-10T09:41:49;12.80;28.50
21355;DHT22;10835;50.148;19.760;2024-01-10T09:44:21;12.00;29.10
21355;DHT22;10835;50.148;19.760;2024-01-10T09:46:52;12.40;29.70
21355;DHT22;10835;50.148;19.760;2024-01-10T09:49:21;12.60;29.30
21355;DHT22;10835;50.148;19.760;2024-01-10T09:51:58;12.30;29.40
21355;DHT22;10835;50.148;19.760;2024-01-10T09:54:29;12.50;29.80
21355;DHT22;10835;50.148;19.760;2024-01-10T09:56:58;13.10;29.30
21355;DHT22;10835;50.148;19.760;2024-01-10T09:59:27;13.40;28.80
21355;DHT22;10835;50.148;19.760;2024-01-10T10:01:56;12.60;29.00
21355;DHT22;10835;50.148;19.760;2024-01-10T10:04:27;12.20;29.60
21355;DHT22;10835;50.148;19.760;2024-01-10T10:07:00;12.40;29.80
21355;DHT22;10835;50.148;19.760;2024-01-10T10:09:31;12.50;29.70
21355;DHT22;10835;50.148;19.760;2024-01-10T10:11:59;12.10;29.80
21355;DHT22;10835;50.148;19.760;2024-01-10T10:14:29;11.70;29.90
21355;DHT22;10835;50.148;19.760;2024-01-10T10:17:13;11.40;30.00
21355;DHT22;10835;50.148;19.760;2024-01-10T10:19:43;11.20;30.30
21355;DHT22;10835;50.148;19.760;2024-01-10T10:22:14;11.20;30.40
21355;DHT22;10835;50.148;19.760;2024-01-10T10:24:42;11.50;30.70
21355;DHT22;10835;50.148;19.760;2024-01-10T10:27:16;11.60;30.70
21355;DHT22;10835;50.148;19.760;2024-01-10T10:29:45;12.50;30.70
21355;DHT22;10835;50.148;19.760;2024-01-10T10:32:15;13.30;30.20
21355;DHT22;10835;50.148;19.760;2024-01-10T10:34:45;13.40;29.60
21355;DHT22;10835;50.148;19.760;2024-01-10T10:37:15;13.60;29.20
21355;DHT22;10835;50.148;19.760;2024-01-10T10:39:43;14.00;29.30
21355;DHT22;10835;50.148;19.760;2024-01-10T10:42:12;13.00;28.80
21355;DHT22;10835;50.148;19.760;2024-01-10T10:44:43;13.20;29.40
21355;DHT22;10835;50.148;19.760;2024-01-10T10:47:14;12.90;29.50
21355;DHT22;10835;50.148;19.760;2024-01-10T10:49:47;13.00;30.00
21355;DHT22;10835;50.148;19.760;2024-01-10T10:52:21;13.70;29.70
21355;DHT22;10835;50.148;19.760;2024-01-10T10:54:51;14.20;29.40
21355;DHT22;10835;50.148;19.760;2024-01-10T10:57:22;13.70;29.40
21355;DHT22;10835;50.148;19.760;2024-01-10T10:59:53;14.30;30.00
21355;DHT22;10835;50.148;19.760;2024-01-10T11:02:22;14.50;30.00
21355;DHT22;10835;50.148;19.760;2024-01-10T11:04:56;14.50;29.90
21355;DHT22;10835;50.148;19.760;2024-01-10T11:07:27;14.10;29.80
21355;DHT22;10835;50.148;19.760;2024-01-10T11:09:56;14.70;30.40
21355;DHT22;10835;50.148;19.760;2024-01-10T11:12:38;14.90;29.70
21355;DHT22;10835;50.148;19.760;2024-01-10T11:15:20;14.60;29.70
21355;DHT22;10835;50.148;19.760;2024-01-10T11:18:09;13.60;30.00
21355;DHT22;10835;50.148;19.760;2024-01-10T11:21:00;14.00;30.70
21355;DHT22;10835;50.148;19.760;2024-01-10T11:23:42;13.30;30.40
21355;DHT22;10835;50.148;19.760;2024-01-10T11:26:13;14.00;31.70
21355;DHT22;10835;50.148;19.760;2024-01-10T11:28:42;15.20;30.00
21355;DHT22;10835;50.148;19.760;2024-01-10T11:31:12;15.80;29.60
21355;DHT22;10835;50.148;19.760;2024-01-10T11:33:42;16.00;29.30
21355;DHT22;10835;50.148;19.760;2024-01-10T11:36:13;16.30;28.50
21355;DHT22;10835;50.148;19.760;2024-01-10T11:38:48;16.50;27.70
21355;DHT22;10835;50.148;19.760;2024-01-10T11:41:22;16.60;27.80
21355;DHT22;10835;50.148;19.760;2024-01-10T11:44:26;16.50;28.00
21355;DHT22;10835;50.148;19.760;2024-01-10T11:46:55;16.50;28.00
21355;DHT22;10835;50.148;19.760;2024-01-10T11:49:25;16.30;28.30
21355;DHT22;10835;50.148;19.760;2024-01-10T11:51:55;16.10;28.30
21355;DHT22;10835;50.148;19.760;2024-01-10T11:54:46;15.90;28.30
21355;DHT22;10835;50.148;19.760;2024-01-10T11:57:20;15.90;28.30
21355;DHT22;10835;50.148;19.760;2024-01-10T11:59:51;16.10;28.30
21355;DHT22;10835;50.148;19.760;2024-01-10T12:02:20;16.20;27.80
21355;DHT22;10835;50.148;19.760;2024-01-10T12:04:49;16.30;27.60
21355;DHT22;10835;50.148;19.760;2024-01-10T12:07:19;16.30;27.90
21355;DHT22;10835;50.148;19.760;2024-01-10T12:09:49;16.30;28.40
21355;DHT22;10835;50.148;19.760;2024-01-10T12:12:18;16.40;28.30
21355;DHT22;10835;50.148;19.760;2024-01-10T12:14:46;16.50;27.90
21355;DHT22;10835;50.148;19.760;2024-01-10T12:17:15;16.60;27.70
21355;DHT22;10835;50.148;19.760;2024-01-10T12:19:44;16.60;27.70
21355;DHT22;10835;50.148;19.760;2024-01-10T12:22:16;16.70;27.80
21355;DHT22;10835;50.148;19.760;2024-01-10T12:24:49;16.40;28.30
21355;DHT22;10835;50.148;19.760;2024-01-10T12:27:18;16.50;28.50
21355;DHT22;10835;50.148;19.760;2024-01-10T12:29:49;16.50;28.70
21355;DHT22;10835;50.148;19.760;2024-01-10T12:32:20;16.30;28.50
21355;DHT22;10835;50.148;19.760;2024-01-10T12:34:57;15.70;28.50
21355;DHT22;10835;50.148;19.760;2024-01-10T12:37:29;15.70;29.20
21355;DHT22;10835;50.148;19.760;2024-01-10T12:39:59;15.60;29.30
21355;DHT22;10835;50.148;19.760;2024-01-10T12:42:30;16.00;29.70
21355;DHT22;10835;50.148;19.760;2024-01-10T12:44:58;16.50;29.10
21355;DHT22;10835;50.148;19.760;2024-01-10T12:47:27;16.70;28.50
21355;DHT22;10835;50.148;19.760;2024-01-10T12:49:56;16.90;28.50
21355;DHT22;10835;50.148;19.760;2024-01-10T12:52:24;16.90;28.10
21355;DHT22;10835;50.148;19.760;2024-01-10T12:54:53;17.00;28.00
21355;DHT22;10835;50.148;19.760;2024-01-10T12:57:23;16.90;27.70
21355;DHT22;10835;50.148;19.760;2024-01-10T12:59:51;17.00;28.00
21355;DHT22;10835;50.148;19.760;2024-01-10T13:02:20;17.00;28.10
21355;DHT22;10835;50.148;19.760;2024-01-10T13:04:49;16.80;28.30
21355;DHT22;10835;50.148;19.760;2024-01-10T13:07:17;16.20;28.40
21355;DHT22;10835;50.148;19.760;2024-01-10T13:09:46;16.00;29.30
21355;DHT22;10835;50.148;19.760;2024-01-10T13:12:14;16.20;29.30
21355;DHT22;10835;50.148;19.760;2024-01-10T13:14:44;16.50;29.40
21355;DHT22;10835;50.148;19.760;2024-01-10T13:17:12;16.70;29.10
21355;DHT22;10835;50.148;19.760;2024-01-10T13:19:41;16.70;28.60
21355;DHT22;10835;50.148;19.760;2024-01-10T13:22:12;16.70;28.40
21355;DHT22;10835;50.148;19.760;2024-01-10T13:24:43;16.70;28.30
21355;DHT22;10835;50.148;19.760;2024-01-10T13:27:12;16.70;28.30
21355;DHT22;10835;50.148;19.760;2024-01-10T13:29:42;16.70;28.40
21355;DHT22;10835;50.148;19.760;2024-01-10T13:32:11;16.70;28.60
21355;DHT22;10835;50.148;19.760;2024-01-10T13:34:40;16.70;28.50
21355;DHT22;10835;50.148;19.760;2024-01-10T13:37:08;16.80;28.70
21355;DHT22;10835;50.148;19.760;2024-01-10T13:39:41;16.70;29.00
21355;DHT22;10835;50.148;19.760;2024-01-10T13:42:09;16.40;28.90
21355;DHT22;10835;50.148;19.760;2024-01-10T13:44:38;16.50;28.90
21355;DHT22;10835;50.148;19.760;2024-01-10T13:47:07;16.60;29.00
21355;DHT22;10835;50.148;19.760;2024-01-10T13:49:36;16.50;29.00
21355;DHT22;10835;50.148;19.760;2024-01-10T13:52:05;16.60;29.50
21355;DHT22;10835;50.148;19.760;2024-01-10T13:54:34;16.70;29.80
21355;DHT22;10835;50.148;19.760;2024-01-10T13:57:04;16.80;28.90
21355;DHT22;10835;50.148;19.760;2024-01-10T13:59:32;16.80;28.80
21355;DHT22;10835;50.148;19.760;2024-01-10T14:02:01;16.80;29.30
21355;DHT22;10835;50.148;19.760;2024-01-10T14:04:29;16.70;29.40
21355;DHT22;10835;50.148;19.760;2024-01-10T14:06:59;16.70;29.10
21355;DHT22;10835;50.148;19.760;2024-01-10T14:09:30;16.50;29.30
21355;DHT22;10835;50.148;19.760;2024-01-10T14:11:58;16.40;29.80
21355;DHT22;10835;50.148;19.760;2024-01-10T14:14:26;16.30;29.60
21355;DHT22;10835;50.148;19.760;2024-01-10T14:16:55;16.30;29.70
21355;DHT22;10835;50.148;19.760;2024-01-10T14:19:23;16.20;29.60
21355;DHT22;10835;50.148;19.760;2024-01-10T14:21:52;16.10;29.30
21355;DHT22;10835;50.148;19.760;2024-01-10T14:24:22;16.00;29.70
21355;DHT22;10835;50.148;19.760;2024-01-10T14:26:50;15.70;30.00
21355;DHT22;10835;50.148;19.760;2024-01-10T14:29:19;15.40;30.30
21355;DHT22;10835;50.148;19.760;2024-01-10T14:31:49;15.30;30.70
21355;DHT22;10835;50.148;19.760;2024-01-10T14:34:22;14.80;30.50
21355;DHT22;10835;50.148;19.760;2024-01-10T14:36:50;14.40;31.10
21355;DHT22;10835;50.148;19.760;2024-01-10T14:39:19;14.40;31.60
21355;DHT22;10835;50.148;19.760;2024-01-10T14:41:49;14.30;31.90
21355;DHT22;10835;50.148;19.760;2024-01-10T14:44:17;14.30;31.90
21355;DHT22;10835;50.148;19.760;2024-01-10T14:46:46;14.30;32.00
21355;DHT22;10835;50.148;19.760;2024-01-10T14:49:29;14.00;32.00
21355;DHT22;10835;50.148;19.760;2024-01-10T14:51:58;14.00;32.40
21355;DHT22;10835;50.148;19.760;2024-01-10T14:54:27;14.10;32.30
21355;DHT22;10835;50.148;19.760;2024-01-10T14:56:57;13.80;32.30
21355;DHT22;10835;50.148;19.760;2024-01-10T14:59:25;13.30;32.40
21355;DHT22;10835;50.148;19.760;2024-01-10T15:02:10;13.20;33.40
21355;DHT22;10835;50.148;19.760;2024-01-10T15:04:39;13.50;33.20
21355;DHT22;10835;50.148;19.760;2024-01-10T15:07:08;13.60;32.90
21355;DHT22;10835;50.148;19.760;2024-01-10T15:09:37;13.00;32.60
21355;DHT22;10835;50.148;19.760;2024-01-10T15:12:07;12.80;33.40
21355;DHT22;10835;50.148;19.760;2024-01-10T15:14:37;12.90;33.90
21355;DHT22;10835;50.148;19.760;2024-01-10T15:17:07;12.70;33.70
21355;DHT22;10835;50.148;19.760;2024-01-10T15:19:38;12.30;33.60
21355;DHT22;10835;50.148;19.760;2024-01-10T15:22:07;11.90;34.10
21355;DHT22;10835;50.148;19.760;2024-01-10T15:24:36;12.10;34.70
21355;DHT22;10835;50.148;19.760;2024-01-10T15:27:07;12.00;34.30
21355;DHT22;10835;50.148;19.760;2024-01-10T15:29:37;12.00;34.90
21355;DHT22;10835;50.148;19.760;2024-01-10T15:32:07;12.20;35.00
21355;DHT22;10835;50.148;19.760;2024-01-10T15:34:36;11.70;34.20
21355;DHT22;10835;50.148;19.760;2024-01-10T15:37:05;11.30;34.60